createdAt,value
2022-10-06T00:00:03.533Z,74
2022-10-06T00:20:03.092Z,74
2022-10-06T00:40:02.561Z,75
2022-10-06T01:00:02.894Z,75
2022-10-06T01:20:02.314Z,75
2022-10-06T01:40:02.897Z,75
2022-10-06T02:00:02.193Z,75
2022-10-06T02:20:03.114Z,74
2022-10-06T02:40:02.565Z,74
2022-10-06T03:00:02.889Z,75
2022-10-06T03:20:03.158Z,75
2022-10-06T03:40:02.619Z,76
2022-10-06T04:00:03.094Z,76
2022-10-06T04:20:02.561Z,76
2022-10-06T04:40:03.107Z,76
2022-10-06T05:00:11.275Z,75
2022-10-06T05:20:02.197Z,70
2022-10-06T05:40:02.595Z,68
2022-10-06T06:00:03.059Z,67
2022-10-06T06:20:03.066Z,65
2022-10-06T06:40:02.462Z,65
2022-10-06T07:00:03.355Z,64
2022-10-06T07:20:02.918Z,64
2022-10-06T07:40:02.194Z,64
2022-10-06T08:00:03.633Z,63
2022-10-06T08:20:02.590Z,62
2022-10-06T09:00:02.963Z,58
2022-10-06T09:20:02.596Z,55
2022-10-06T09:40:03.045Z,52
2022-10-06T10:00:02.474Z,51
2022-10-06T10:20:03.318Z,52
2022-10-06T10:40:02.748Z,48
2022-10-06T11:00:03.064Z,46
2022-10-06T11:20:02.881Z,46
2022-10-06T11:40:02.746Z,45
2022-10-06T12:00:03.113Z,45
2022-10-06T12:20:02.558Z,45
2022-10-06T12:40:02.971Z,45
2022-10-06T13:00:02.515Z,44
2022-10-06T13:20:03.113Z,45
2022-10-06T13:40:16.600Z,45
2022-10-06T14:00:03.565Z,45
2022-10-06T14:20:03.274Z,46
2022-10-06T14:40:03.239Z,46
2022-10-06T15:00:03.358Z,45
2022-10-06T15:20:02.816Z,46
2022-10-06T16:00:02.795Z,47
2022-10-06T16:20:03.367Z,48
2022-10-06T16:40:02.614Z,51
2022-10-06T17:00:03.023Z,53
2022-10-06T17:20:02.388Z,55
2022-10-06T17:40:02.656Z,56
2022-10-06T18:00:02.972Z,57
2022-10-06T18:20:02.537Z,59
2022-10-06T18:40:02.858Z,60
2022-10-06T19:00:03.253Z,61
2022-10-06T19:20:02.860Z,61
2022-10-06T19:40:03.320Z,62
2022-10-06T20:00:02.970Z,63
2022-10-06T20:20:02.509Z,63
2022-10-06T20:40:02.896Z,64
2022-10-06T21:00:03.431Z,65
2022-10-06T21:20:03.186Z,65
2022-10-06T21:40:02.926Z,65
2022-10-06T22:00:02.475Z,65
2022-10-06T22:20:03.104Z,66
2022-10-06T22:40:07.902Z,67
2022-10-06T23:00:02.469Z,67
2022-10-06T23:20:02.915Z,67
2022-10-06T23:40:03.021Z,68
